createdAt,value
2023-05-06T00:00:07.138Z,1.70
2023-05-06T00:02:34.890Z,1.93
2023-05-06T00:05:03.301Z,1.80
2023-05-06T00:07:30.915Z,1.57
2023-05-06T00:09:58.564Z,1.90
2023-05-06T00:12:26.126Z,1.90
2023-05-06T00:14:53.798Z,1.73
2023-05-06T00:17:22.759Z,1.70
2023-05-06T00:19:52.348Z,1.47
2023-05-06T00:22:19.984Z,2.00
2023-05-06T00:24:47.663Z,1.50
2023-05-06T00:27:15.278Z,1.60
2023-05-06T00:29:43.129Z,1.60
2023-05-06T00:32:11.107Z,1.40
2023-05-06T00:34:40.429Z,1.60
2023-05-06T00:37:10.112Z,1.70
2023-05-06T00:39:37.907Z,1.73
2023-05-06T00:42:05.930Z,1.70
2023-05-06T00:44:33.504Z,1.60
2023-05-06T00:47:01.871Z,1.63
2023-05-06T00:49:30.277Z,1.70
2023-05-06T00:52:00.565Z,1.70
2023-05-06T00:54:29.900Z,1.50
2023-05-06T00:56:59.176Z,2.13
2023-05-06T00:59:26.898Z,1.60
2023-05-06T01:01:54.993Z,1.80
2023-05-06T01:04:24.031Z,1.63
2023-05-06T01:06:57.008Z,1.40
2023-05-06T01:09:30.740Z,1.73
2023-05-06T01:12:05.646Z,1.50
2023-05-06T01:14:37.769Z,1.40
2023-05-06T01:17:06.516Z,1.60
2023-05-06T01:19:41.912Z,1.80
2023-05-06T01:22:11.098Z,1.73
2023-05-06T01:24:41.600Z,1.80
2023-05-06T01:27:10.226Z,1.93
2023-05-06T01:29:39.595Z,2.40
2023-05-06T01:32:18.416Z,2.23
2023-05-06T01:34:51.197Z,2.37
2023-05-06T01:37:23.134Z,2.70
2023-05-06T01:39:55.729Z,2.30
2023-05-06T01:42:24.990Z,2.30
2023-05-06T01:44:54.359Z,2.30
2023-05-06T01:47:22.289Z,2.60
2023-05-06T01:49:50.025Z,1.80
2023-05-06T01:52:17.756Z,1.80
2023-05-06T01:54:45.546Z,1.93
2023-05-06T01:57:14.766Z,1.83
2023-05-06T01:59:42.606Z,1.90
2023-05-06T02:02:10.587Z,1.70
2023-05-06T02:04:38.640Z,2.17
2023-05-06T02:07:06.622Z,2.03
2023-05-06T02:09:34.455Z,1.93
2023-05-06T02:12:02.351Z,2.00
2023-05-06T02:14:31.643Z,1.77
2023-05-06T02:16:59.403Z,2.13
2023-05-06T02:19:27.075Z,1.70
2023-05-06T02:21:54.834Z,2.03
2023-05-06T02:24:22.767Z,1.93
2023-05-06T02:26:50.668Z,1.90
2023-05-06T02:29:18.551Z,1.67
2023-05-06T02:31:47.670Z,1.87
2023-05-06T02:34:15.517Z,1.80
2023-05-06T02:36:43.273Z,1.90
2023-05-06T02:39:11.121Z,2.10
2023-05-06T02:41:38.952Z,2.17
2023-05-06T02:44:06.735Z,2.10
2023-05-06T02:46:35.975Z,1.63
2023-05-06T02:49:05.161Z,1.80
2023-05-06T02:51:33.005Z,1.90
2023-05-06T02:54:00.762Z,1.70
2023-05-06T02:56:28.613Z,1.60
2023-05-06T02:58:56.536Z,1.70
2023-05-06T03:01:24.382Z,1.70
2023-05-06T03:03:52.005Z,1.90
2023-05-06T03:06:20.914Z,1.87
2023-05-06T03:08:48.919Z,1.80
2023-05-06T03:11:16.805Z,2.20
2023-05-06T03:13:44.646Z,1.50
2023-05-06T03:16:15.410Z,1.50
2023-05-06T03:18:43.275Z,1.43
2023-05-06T03:21:12.164Z,1.50
2023-05-06T03:23:41.315Z,1.50
2023-05-06T03:26:08.994Z,1.40
2023-05-06T03:28:36.633Z,1.60
2023-05-06T03:31:04.251Z,1.50
2023-05-06T03:33:31.987Z,1.70
2023-05-06T03:35:59.588Z,1.90
2023-05-06T03:38:27.248Z,1.43
2023-05-06T03:40:56.190Z,1.20
2023-05-06T03:43:23.805Z,1.43
2023-05-06T03:45:51.609Z,1.40
2023-05-06T03:48:19.167Z,1.40
2023-05-06T03:50:46.758Z,1.30
2023-05-06T03:53:14.356Z,1.30
2023-05-06T03:55:41.933Z,1.50
2023-05-06T03:58:11.320Z,1.30
2023-05-06T04:00:38.946Z,1.40
2023-05-06T04:03:06.552Z,1.40
2023-05-06T04:05:34.172Z,1.70
2023-05-06T04:08:01.750Z,1.27
2023-05-06T04:10:29.313Z,1.90
2023-05-06T04:12:56.838Z,1.50
2023-05-06T04:15:25.771Z,1.60
2023-05-06T04:17:53.373Z,1.50
2023-05-06T04:20:20.933Z,1.70
2023-05-06T04:22:48.543Z,1.67
2023-05-06T04:25:16.336Z,1.63
2023-05-06T04:27:43.934Z,1.80
2023-05-06T04:30:12.533Z,2.00
2023-05-06T04:32:41.531Z,1.70
2023-05-06T04:35:10.201Z,1.70
2023-05-06T04:37:38.078Z,1.70
2023-05-06T04:40:06.913Z,2.07
2023-05-06T04:42:34.626Z,1.70
2023-05-06T04:45:02.279Z,1.60
2023-05-06T04:47:29.977Z,1.90
2023-05-06T04:49:58.906Z,1.77
2023-05-06T04:52:26.695Z,2.07
2023-05-06T04:54:54.282Z,1.90
2023-05-06T04:57:21.894Z,1.93
2023-05-06T04:59:49.474Z,1.97
2023-05-06T05:02:17.161Z,1.67
2023-05-06T05:04:44.772Z,2.03
2023-05-06T05:07:13.776Z,2.10
2023-05-06T05:09:42.240Z,1.83
2023-05-06T05:12:09.878Z,1.83
2023-05-06T05:14:37.647Z,1.67
2023-05-06T05:17:05.615Z,2.00
2023-05-06T05:19:33.259Z,1.83
2023-05-06T05:22:00.827Z,1.60
2023-05-06T05:24:29.795Z,1.70
2023-05-06T05:26:57.352Z,1.70
2023-05-06T05:29:24.920Z,1.60
2023-05-06T05:31:52.517Z,1.77
2023-05-06T05:34:20.090Z,1.47
2023-05-06T05:36:47.685Z,1.60
2023-05-06T05:39:15.259Z,1.60
2023-05-06T05:41:44.172Z,1.73
2023-05-06T05:44:11.830Z,1.60
2023-05-06T05:46:39.499Z,1.73
2023-05-06T05:49:07.489Z,1.60
2023-05-06T05:51:35.279Z,1.70
2023-05-06T05:54:02.885Z,1.60
2023-05-06T05:56:30.403Z,1.60
2023-05-06T05:58:59.379Z,1.80
2023-05-06T06:01:26.970Z,1.53
2023-05-06T06:03:55.976Z,1.80
2023-05-06T06:06:24.305Z,1.97
2023-05-06T06:08:52.128Z,1.70
2023-05-06T06:11:19.839Z,1.90
2023-05-06T06:13:47.446Z,1.70
2023-05-06T06:16:16.421Z,1.70
2023-05-06T06:18:44.048Z,1.67
2023-05-06T06:21:11.657Z,1.60
2023-05-06T06:23:39.410Z,1.70
2023-05-06T06:26:07.046Z,1.40
2023-05-06T06:28:34.637Z,1.40
2023-05-06T06:31:02.861Z,1.43
2023-05-06T06:33:31.811Z,1.50
2023-05-06T06:35:59.564Z,1.50
2023-05-06T06:38:27.175Z,1.40
2023-05-06T06:40:54.808Z,1.40
2023-05-06T06:43:23.804Z,1.40
2023-05-06T06:45:51.595Z,1.47
2023-05-06T06:48:20.282Z,1.70
2023-05-06T06:50:49.308Z,1.50
2023-05-06T06:53:16.866Z,1.30
2023-05-06T06:55:44.757Z,1.37
2023-05-06T06:58:12.366Z,1.60
2023-05-06T07:00:39.989Z,1.87
2023-05-06T07:03:07.660Z,1.30
2023-05-06T07:05:35.642Z,1.43
2023-05-06T07:08:04.678Z,1.40
2023-05-06T07:10:32.285Z,1.13
2023-05-06T07:12:59.923Z,1.23
2023-05-06T07:15:27.613Z,1.67
2023-05-06T07:17:55.240Z,1.47
2023-05-06T07:20:22.853Z,1.63
2023-05-06T07:22:50.452Z,1.43
2023-05-06T07:25:19.543Z,1.30
2023-05-06T07:27:47.096Z,1.60
2023-05-06T07:30:14.972Z,1.77
2023-05-06T07:32:43.392Z,1.53
2023-05-06T07:35:11.212Z,1.90
2023-05-06T07:37:38.975Z,2.03
2023-05-06T07:40:07.994Z,1.60
2023-05-06T07:42:36.918Z,1.80
2023-05-06T07:45:05.183Z,2.43
2023-05-06T07:47:33.554Z,2.03
2023-05-06T07:50:01.262Z,1.53
2023-05-06T07:52:28.897Z,1.80
2023-05-06T07:54:56.575Z,1.47
2023-05-06T07:57:24.129Z,1.60
2023-05-06T07:59:53.836Z,1.63
2023-05-06T08:02:21.411Z,1.33
2023-05-06T08:04:50.947Z,1.70
2023-05-06T08:07:19.363Z,1.50
2023-05-06T08:09:46.945Z,1.50
2023-05-06T08:12:15.728Z,1.20
2023-05-06T08:14:43.288Z,1.50
2023-05-06T08:17:12.169Z,1.60
2023-05-06T08:19:39.757Z,1.63
2023-05-06T08:22:07.252Z,1.53
2023-05-06T08:24:34.882Z,1.90
2023-05-06T08:27:04.204Z,1.77
2023-05-06T08:29:31.776Z,1.80
2023-05-06T08:31:59.408Z,1.73
2023-05-06T08:34:28.415Z,1.93
2023-05-06T08:36:56.738Z,1.50
2023-05-06T08:39:24.336Z,1.43
2023-05-06T08:41:53.600Z,1.73
2023-05-06T08:44:24.529Z,1.83
2023-05-06T08:46:52.447Z,2.20
2023-05-06T08:49:20.158Z,1.90
2023-05-06T08:51:52.288Z,2.27
2023-05-06T08:54:20.030Z,2.10
2023-05-06T08:56:50.048Z,1.87
2023-05-06T08:59:17.936Z,2.20
2023-05-06T09:01:45.618Z,2.47
2023-05-06T09:04:13.822Z,1.80
2023-05-06T09:06:41.819Z,2.37
2023-05-06T09:09:11.427Z,1.90
2023-05-06T09:11:39.592Z,1.80
2023-05-06T09:14:12.202Z,2.13
2023-05-06T09:16:40.365Z,1.83
2023-05-06T09:19:07.971Z,1.33
2023-05-06T09:21:35.990Z,1.93
2023-05-06T09:24:04.116Z,1.80
2023-05-06T09:26:33.993Z,1.50
2023-05-06T09:29:02.525Z,1.50
2023-05-06T09:31:30.473Z,1.77
2023-05-06T09:33:59.214Z,1.50
2023-05-06T09:36:28.073Z,1.40
2023-05-06T09:38:56.465Z,1.20
2023-05-06T09:41:25.689Z,1.90
2023-05-06T09:43:55.710Z,1.87
2023-05-06T09:46:24.483Z,1.63
2023-05-06T09:48:53.184Z,1.37
2023-05-06T09:51:21.174Z,1.60
2023-05-06T09:53:48.943Z,1.40
2023-05-06T09:56:17.035Z,1.23
2023-05-06T09:58:44.652Z,1.30
2023-05-06T10:01:19.197Z,1.30
2023-05-06T10:03:54.508Z,1.27
2023-05-06T10:06:24.153Z,1.33
2023-05-06T10:08:52.095Z,1.17
2023-05-06T10:11:20.644Z,1.47
2023-05-06T10:13:48.719Z,1.40
2023-05-06T10:16:18.490Z,1.57
2023-05-06T10:18:46.745Z,1.70
2023-05-06T10:21:18.237Z,1.63
2023-05-06T10:23:52.023Z,1.30
2023-05-06T10:26:21.726Z,1.10
2023-05-06T10:28:52.675Z,1.23
2023-05-06T10:31:21.722Z,1.13
2023-05-06T10:33:51.803Z,1.27
2023-05-06T10:36:21.334Z,1.33
2023-05-06T10:38:52.341Z,1.20
2023-05-06T10:41:22.132Z,1.47
2023-05-06T10:43:56.436Z,1.40
2023-05-06T10:46:26.146Z,1.30
2023-05-06T10:49:19.962Z,1.00
2023-05-06T10:51:48.685Z,1.10
2023-05-06T10:54:25.701Z,1.27
2023-05-06T10:57:09.679Z,1.30
2023-05-06T10:59:37.275Z,1.10
2023-05-06T11:02:12.265Z,1.07
2023-05-06T11:04:40.250Z,0.90
2023-05-06T11:07:09.957Z,1.33
2023-05-06T11:09:55.719Z,0.90
2023-05-06T11:12:23.507Z,0.90
2023-05-06T11:14:51.250Z,0.80
2023-05-06T11:17:33.825Z,1.00
2023-05-06T11:20:19.367Z,1.40
2023-05-06T11:22:46.950Z,1.00
2023-05-06T11:25:14.580Z,1.03
2023-05-06T11:27:42.384Z,1.30
2023-05-06T11:30:15.053Z,1.50
2023-05-06T11:32:44.699Z,1.27
2023-05-06T11:35:12.951Z,1.20
2023-05-06T11:37:43.507Z,1.07
2023-05-06T11:40:19.872Z,1.40
2023-05-06T11:42:47.424Z,1.43
2023-05-06T11:45:15.036Z,1.13
2023-05-06T11:47:45.937Z,1.00
2023-05-06T11:50:13.587Z,0.97
2023-05-06T11:52:41.260Z,1.20
2023-05-06T11:55:10.837Z,1.00
2023-05-06T11:57:44.635Z,0.87
2023-05-06T12:00:13.293Z,0.93
2023-05-06T12:02:42.119Z,1.00
2023-05-06T12:05:12.192Z,1.20
2023-05-06T12:07:42.966Z,0.90
2023-05-06T12:10:11.090Z,0.77
2023-05-06T12:12:39.143Z,0.93
2023-05-06T12:15:08.106Z,0.90
2023-05-06T12:17:35.807Z,0.83
2023-05-06T12:20:04.060Z,1.10
2023-05-06T12:22:33.363Z,1.10
2023-05-06T12:25:14.006Z,1.30
2023-05-06T12:27:42.116Z,1.40
2023-05-06T12:30:11.331Z,1.50
2023-05-06T12:32:57.462Z,2.27
2023-05-06T12:35:29.222Z,1.47
2023-05-06T12:37:59.094Z,1.40
2023-05-06T12:40:26.704Z,1.55
2023-05-06T12:42:55.180Z,1.00
2023-05-06T12:45:23.718Z,1.25
2023-05-06T12:47:55.065Z,1.40
2023-05-06T12:50:33.141Z,1.40
2023-05-06T12:53:02.379Z,1.13
2023-05-06T12:55:32.104Z,1.20
2023-05-06T12:57:59.751Z,1.00
2023-05-06T13:00:27.663Z,1.10
2023-05-06T13:02:55.597Z,1.20
2023-05-06T13:05:23.953Z,1.47
2023-05-06T13:07:53.142Z,1.20
2023-05-06T13:10:22.466Z,1.70
2023-05-06T13:12:50.545Z,1.63
2023-05-06T13:15:18.326Z,1.50
2023-05-06T13:17:46.331Z,1.50
2023-05-06T13:20:14.302Z,1.83
2023-05-06T13:22:53.723Z,1.40
2023-05-06T13:25:23.924Z,1.50
2023-05-06T13:27:51.738Z,1.47
2023-05-06T13:30:19.651Z,1.77
2023-05-06T13:32:48.691Z,1.37
2023-05-06T13:35:16.433Z,1.50
2023-05-06T13:37:44.077Z,1.30
2023-05-06T13:40:13.161Z,1.33
2023-05-06T13:42:42.495Z,1.23
2023-05-06T13:45:11.344Z,1.20
2023-05-06T13:47:39.144Z,1.57
2023-05-06T13:50:08.404Z,1.10
2023-05-06T13:52:36.082Z,1.20
2023-05-06T13:55:03.765Z,1.43
2023-05-06T13:57:31.481Z,1.00
2023-05-06T14:00:00.719Z,1.80
2023-05-06T14:02:28.486Z,1.27
2023-05-06T14:04:56.105Z,1.10
2023-05-06T14:07:23.707Z,1.60
2023-05-06T14:09:51.247Z,1.37
2023-05-06T14:12:18.776Z,1.30
2023-05-06T14:14:46.360Z,1.07
2023-05-06T14:17:15.284Z,1.10
2023-05-06T14:19:42.852Z,1.20
2023-05-06T14:22:10.417Z,0.87
2023-05-06T14:24:37.964Z,1.07
2023-05-06T14:27:05.586Z,1.00
2023-05-06T14:29:33.432Z,1.13
2023-05-06T14:32:01.145Z,1.10
2023-05-06T14:34:30.053Z,1.40
2023-05-06T14:36:57.586Z,1.53
2023-05-06T14:39:25.192Z,1.33
2023-05-06T14:41:52.815Z,1.40
2023-05-06T14:44:20.560Z,1.20
2023-05-06T14:46:48.253Z,0.90
2023-05-06T14:49:16.381Z,1.10
2023-05-06T14:51:45.824Z,4.97
2023-05-06T14:54:13.560Z,1.43
2023-05-06T14:56:41.289Z,1.20
2023-05-06T14:59:09.106Z,1.40
2023-05-06T15:01:36.677Z,1.40
2023-05-06T15:04:04.500Z,1.50
2023-05-06T15:06:32.647Z,1.33
2023-05-06T15:09:02.999Z,1.30
2023-05-06T15:11:30.757Z,1.20
2023-05-06T15:13:58.472Z,1.67
2023-05-06T15:16:26.624Z,1.63
2023-05-06T15:18:54.513Z,1.63
2023-05-06T15:21:22.303Z,1.50
2023-05-06T15:23:50.835Z,1.67
2023-05-06T15:26:20.019Z,1.43
2023-05-06T15:28:47.848Z,1.30
2023-05-06T15:31:15.664Z,1.53
2023-05-06T15:33:43.536Z,1.70
2023-05-06T15:36:12.077Z,1.27
2023-05-06T15:38:58.367Z,1.30
2023-05-06T15:41:30.374Z,1.47
2023-05-06T15:43:59.474Z,1.13
2023-05-06T15:46:27.443Z,1.17
2023-05-06T15:49:15.644Z,1.13
2023-05-06T15:51:43.737Z,1.43
2023-05-06T15:54:11.571Z,1.43
2023-05-06T15:56:41.607Z,1.40
2023-05-06T15:59:09.617Z,1.10
2023-05-06T16:02:16.540Z,1.47
2023-05-06T16:04:25.634Z,1.67
2023-05-06T16:06:53.381Z,1.40
2023-05-06T16:09:20.974Z,1.33
2023-05-06T16:11:50.037Z,1.60
2023-05-06T16:14:17.582Z,1.53
2023-05-06T16:16:45.351Z,1.50
2023-05-06T16:19:13.061Z,1.00
2023-05-06T16:21:40.892Z,1.50
2023-05-06T16:24:08.691Z,1.50
2023-05-06T16:26:36.501Z,1.30
2023-05-06T16:29:05.390Z,1.70
2023-05-06T16:31:33.549Z,1.30
2023-05-06T16:34:01.310Z,1.60
2023-05-06T16:36:29.269Z,1.40
2023-05-06T16:38:56.848Z,1.43
2023-05-06T16:41:24.510Z,1.47
2023-05-06T16:43:52.201Z,1.40
2023-05-06T16:46:23.965Z,1.80
2023-05-06T16:48:52.299Z,1.70
2023-05-06T16:51:19.966Z,1.27
2023-05-06T16:53:47.814Z,1.40
2023-05-06T16:56:15.616Z,1.40
2023-05-06T16:58:43.389Z,1.43
2023-05-06T17:01:11.717Z,1.40
2023-05-06T17:03:40.863Z,1.20
2023-05-06T17:06:08.749Z,1.40
2023-05-06T17:08:37.223Z,1.40
2023-05-06T17:11:06.998Z,1.40
2023-05-06T17:13:34.573Z,1.70
2023-05-06T17:16:02.217Z,1.47
2023-05-06T17:18:29.837Z,2.00
2023-05-06T17:20:59.068Z,1.60
2023-05-06T17:23:27.030Z,1.60
2023-05-06T17:25:56.680Z,1.57
2023-05-06T17:28:24.900Z,1.50
2023-05-06T17:30:52.590Z,2.00
2023-05-06T17:33:20.265Z,1.70
2023-05-06T17:35:47.871Z,1.50
2023-05-06T17:38:17.430Z,1.47
2023-05-06T17:40:44.980Z,1.70
2023-05-06T17:43:12.639Z,1.40
2023-05-06T17:45:41.384Z,1.50
2023-05-06T17:48:09.029Z,1.50
2023-05-06T17:50:36.658Z,1.30
2023-05-06T17:53:04.334Z,1.80
2023-05-06T17:55:33.342Z,2.00
2023-05-06T17:58:00.978Z,1.80
2023-05-06T18:00:28.661Z,1.50
2023-05-06T18:02:56.369Z,1.70
2023-05-06T18:05:25.540Z,1.70
2023-05-06T18:07:53.377Z,1.67
2023-05-06T18:10:21.042Z,1.90
2023-05-06T18:12:50.306Z,1.20
2023-05-06T18:15:18.334Z,1.77
2023-05-06T18:17:46.372Z,1.63
2023-05-06T18:20:14.609Z,1.80
2023-05-06T18:22:42.867Z,1.60
2023-05-06T18:25:11.308Z,1.50
2023-05-06T18:27:39.368Z,1.57
2023-05-06T18:30:09.397Z,1.93
2023-05-06T18:32:37.397Z,1.40
2023-05-06T18:35:05.678Z,1.60
2023-05-06T18:37:33.671Z,1.80
2023-05-06T18:40:01.424Z,1.67
2023-05-06T18:42:29.137Z,1.77
2023-05-06T18:44:57.545Z,1.40
2023-05-06T18:47:26.926Z,1.60
2023-05-06T18:49:54.746Z,1.50
2023-05-06T18:52:23.064Z,1.70
2023-05-06T18:54:50.923Z,1.97
2023-05-06T18:57:19.529Z,1.70
2023-05-06T18:59:47.557Z,1.30
2023-05-06T19:02:15.613Z,1.53
2023-05-06T19:04:44.937Z,1.83
2023-05-06T19:07:14.334Z,1.53
2023-05-06T19:09:43.560Z,1.50
2023-05-06T19:12:11.547Z,1.43
2023-05-06T19:14:39.460Z,1.60
2023-05-06T19:17:07.283Z,1.60
2023-05-06T19:19:35.017Z,1.77
2023-05-06T19:22:04.354Z,1.90
2023-05-06T19:24:32.276Z,1.87
2023-05-06T19:27:00.123Z,1.50
2023-05-06T19:29:28.339Z,1.77
2023-05-06T19:31:56.081Z,1.93
2023-05-06T19:34:23.996Z,1.83
2023-05-06T19:36:51.803Z,2.07
2023-05-06T19:39:21.384Z,1.93
2023-05-06T19:41:49.374Z,1.73
2023-05-06T19:44:17.257Z,1.60
2023-05-06T19:46:45.061Z,1.97
2023-05-06T19:49:12.912Z,1.97
2023-05-06T19:51:40.714Z,1.63
2023-05-06T19:54:08.402Z,1.60
2023-05-06T19:56:37.433Z,1.83
2023-05-06T19:59:05.814Z,1.97
2023-05-06T20:01:33.624Z,1.80
2023-05-06T20:04:01.443Z,2.43
2023-05-06T20:06:31.161Z,2.23
2023-05-06T20:08:58.971Z,2.10
2023-05-06T20:11:26.793Z,1.77
2023-05-06T20:13:55.900Z,1.97
2023-05-06T20:16:23.897Z,1.87
2023-05-06T20:18:52.051Z,1.80
2023-05-06T20:21:19.958Z,2.07
2023-05-06T20:23:47.567Z,1.70
2023-05-06T20:26:15.245Z,1.97
2023-05-06T20:28:42.822Z,1.90
2023-05-06T20:31:11.861Z,1.40
2023-05-06T20:33:39.496Z,1.50
2023-05-06T20:36:07.570Z,1.83
2023-05-06T20:38:35.125Z,1.40
2023-05-06T20:41:03.004Z,1.53
2023-05-06T20:43:30.645Z,1.67
2023-05-06T20:45:58.351Z,1.60
2023-05-06T20:48:27.722Z,1.50
2023-05-06T20:50:57.013Z,1.87
2023-05-06T20:53:24.642Z,1.40
2023-05-06T20:55:52.722Z,1.70
2023-05-06T20:58:20.758Z,1.60
2023-05-06T21:00:49.879Z,1.57
2023-05-06T21:03:17.690Z,1.40
2023-05-06T21:05:46.732Z,1.70
2023-05-06T21:08:14.407Z,1.60
2023-05-06T21:10:41.954Z,1.40
2023-05-06T21:13:09.560Z,1.80
2023-05-06T21:15:37.713Z,1.50
2023-05-06T21:18:05.447Z,1.83
2023-05-06T21:20:33.077Z,1.53
2023-05-06T21:23:03.376Z,1.50
2023-05-06T21:25:30.984Z,1.40
2023-05-06T21:28:03.160Z,1.50
2023-05-06T21:30:30.761Z,1.50
2023-05-06T21:32:58.359Z,1.80
2023-05-06T21:35:26.034Z,2.00
2023-05-06T21:37:53.738Z,1.80
2023-05-06T21:40:22.802Z,1.80
2023-05-06T21:42:50.731Z,1.70
2023-05-06T21:45:18.520Z,1.87
2023-05-06T21:47:46.525Z,2.17
2023-05-06T21:50:14.283Z,1.90
2023-05-06T21:52:42.156Z,1.87
2023-05-06T21:55:10.332Z,1.80
2023-05-06T21:57:39.418Z,2.20
2023-05-06T22:00:11.797Z,2.20
2023-05-06T22:02:40.019Z,1.90
2023-05-06T22:05:08.801Z,2.57
2023-05-06T22:07:36.747Z,1.90
2023-05-06T22:10:04.790Z,2.27
2023-05-06T22:12:32.422Z,2.40
2023-05-06T22:15:01.394Z,2.60
2023-05-06T22:17:29.043Z,2.83
2023-05-06T22:19:56.720Z,2.33
2023-05-06T22:22:25.190Z,2.07
2023-05-06T22:24:52.949Z,1.97
2023-05-06T22:27:20.602Z,2.00
2023-05-06T22:29:48.218Z,1.63
2023-05-06T22:32:17.237Z,2.13
2023-05-06T22:34:44.838Z,1.70
2023-05-06T22:37:12.445Z,1.80
2023-05-06T22:39:40.108Z,2.33
2023-05-06T22:42:07.782Z,2.40
2023-05-06T22:44:35.337Z,2.40
2023-05-06T22:47:03.069Z,2.40
2023-05-06T22:49:32.763Z,2.70
2023-05-06T22:52:00.428Z,2.97
2023-05-06T22:54:28.065Z,2.40
2023-05-06T22:56:55.821Z,2.70
2023-05-06T22:59:23.720Z,2.40
2023-05-06T23:01:51.485Z,2.60
2023-05-06T23:04:19.668Z,2.33
2023-05-06T23:06:49.584Z,2.70
2023-05-06T23:09:17.405Z,2.20
2023-05-06T23:11:46.901Z,2.50
2023-05-06T23:14:14.581Z,2.30
2023-05-06T23:16:46.285Z,2.00
2023-05-06T23:19:14.284Z,1.97
2023-05-06T23:21:43.738Z,2.20
2023-05-06T23:24:13.000Z,2.03
2023-05-06T23:26:40.641Z,1.60
2023-05-06T23:29:08.280Z,2.10
2023-05-06T23:31:35.862Z,2.17
2023-05-06T23:34:04.047Z,1.90
2023-05-06T23:36:31.642Z,1.97
2023-05-06T23:38:59.575Z,2.07
2023-05-06T23:41:28.615Z,2.67
2023-05-06T23:43:56.521Z,3.47
2023-05-06T23:46:24.167Z,3.50
2023-05-06T23:48:51.765Z,3.10
2023-05-06T23:51:19.405Z,2.80
2023-05-06T23:53:47.541Z,2.80
2023-05-06T23:56:15.154Z,2.07
2023-05-06T23:58:44.076Z,2.10
